Time;durP1;ratioP1;P1;durP2;ratioP2;P2;SDS_P1;SDS_P2;PMS_P1;PMS_P2;Temp;Humidity;BMP_temperature;BMP_pressure;BME280_temperature;BME280_humidity;BME280_pressure;Samples;Min_cycle;Max_cycle;Signal;HPM_P1;HPM_P2
2021/01/03 00:01:57;;;;;;;6.87;6.23;;;1.40;99.90;;;;;;5115814;28;20518;-83
2021/01/03 00:04:24;;;;;;;11.13;8.57;;;1.40;99.90;;;;;;5116073;28;20491;-82
2021/01/03 00:06:52;;;;;;;11.00;9.33;;;1.40;99.90;;;;;;5116040;28;20459;-83
2021/01/03 00:09:18;;;;;;;10.37;8.07;;;1.40;99.90;;;;;;5112871;28;20407;-82
2021/01/03 00:11:45;;;;;;;10.57;8.37;;;1.50;99.90;;;;;;5115952;28;20426;-83
2021/01/03 00:14:12;;;;;;;8.83;7.90;;;1.40;99.90;;;;;;5115795;28;20468;-83
2021/01/03 00:16:39;;;;;;;7.17;6.10;;;1.40;99.90;;;;;;5147402;27;20420;-83
2021/01/03 00:19:06;;;;;;;12.23;8.80;;;1.40;99.90;;;;;;5115797;27;20545;-82
2021/01/03 00:21:35;;;;;;;12.57;8.60;;;1.40;99.90;;;;;;5115579;28;20551;-83
2021/01/03 00:24:01;;;;;;;8.77;7.37;;;1.30;99.90;;;;;;5113570;28;21006;-83
2021/01/03 00:26:26;;;;;;;9.07;7.67;;;1.40;99.90;;;;;;5115404;28;20497;-83
2021/01/03 00:28:53;;;;;;;8.63;6.53;;;1.40;99.90;;;;;;5115845;28;20178;-83
2021/01/03 00:31:23;;;;;;;11.60;8.20;;;1.00;99.90;;;;;;5115884;28;20169;-83
2021/01/03 00:33:48;;;;;;;11.00;8.60;;;1.30;99.90;;;;;;5115766;27;20548;-83
2021/01/03 00:36:17;;;;;;;8.73;7.93;;;1.40;99.90;;;;;;5116878;28;20408;-84
2021/01/03 00:38:45;;;;;;;9.60;7.83;;;1.40;99.90;;;;;;5115846;28;20178;-83
2021/01/03 00:41:11;;;;;;;12.97;8.77;;;1.00;99.90;;;;;;5116278;28;20412;-84
2021/01/03 00:43:36;;;;;;;9.67;8.23;;;1.30;99.90;;;;;;5115886;28;20450;-84
2021/01/03 00:46:02;;;;;;;9.30;7.77;;;1.30;99.90;;;;;;5115498;28;20333;-83
2021/01/03 00:48:31;;;;;;;9.40;7.93;;;1.00;99.90;;;;;;5116134;28;20220;-83
2021/01/03 00:50:56;;;;;;;10.17;7.67;;;1.40;99.90;;;;;;5115475;28;20232;-84
2021/01/03 00:53:22;;;;;;;10.50;8.20;;;1.00;99.90;;;;;;5116302;27;20428;-83
2021/01/03 00:55:49;;;;;;;9.50;8.53;;;1.30;99.90;;;;;;5115663;28;20169;-84
2021/01/03 00:58:15;;;;;;;11.37;8.90;;;1.30;99.90;;;;;;5114962;28;20178;-84
2021/01/03 01:00:40;;;;;;;10.90;8.53;;;0.80;99.90;;;;;;5115349;28;20902;-83
2021/01/03 01:03:06;;;;;;;10.73;7.07;;;1.30;99.90;;;;;;5115551;28;20174;-84
2021/01/03 01:05:32;;;;;;;11.80;8.73;;;1.30;99.90;;;;;;5115407;28;20170;-84
2021/01/03 01:08:00;;;;;;;10.47;8.13;;;0.90;99.90;;;;;;5115262;28;20993;-84
2021/01/03 01:10:34;;;;;;;10.70;8.67;;;1.30;99.90;;;;;;5115350;28;20264;-84
2021/01/03 01:13:01;;;;;;;8.73;7.83;;;1.30;99.90;;;;;;5115472;28;20427;-81
2021/01/03 01:15:30;;;;;;;9.40;8.13;;;1.30;99.90;;;;;;5115097;28;20451;-84
2021/01/03 01:18:01;;;;;;;10.50;8.53;;;1.10;99.90;;;;;;5115012;28;20426;-81
2021/01/03 01:20:28;;;;;;;10.30;8.47;;;1.10;99.90;;;;;;5115027;28;20424;-81
2021/01/03 01:22:54;;;;;;;10.70;9.13;;;0.90;99.90;;;;;;5115035;28;20411;-82
2021/01/03 01:25:23;;;;;;;11.50;8.50;;;1.30;99.90;;;;;;5116127;28;20494;-83
2021/01/03 01:27:51;;;;;;;10.47;8.47;;;1.30;99.90;;;;;;5114707;27;20467;-81
2021/01/03 01:30:17;;;;;;;10.93;8.40;;;0.90;99.90;;;;;;5114717;28;20438;-82
2021/01/03 01:32:46;;;;;;;9.23;8.33;;;1.50;99.90;;;;;;5115655;28;20534;-82
2021/01/03 01:35:15;;;;;;;10.77;9.40;;;1.30;99.90;;;;;;5114596;28;20419;-83
2021/01/03 01:37:40;;;;;;;12.30;9.07;;;1.40;99.90;;;;;;5115659;28;20899;-82
2021/01/03 01:40:20;;;;;;;11.60;8.50;;;1.00;99.90;;;;;;5114564;28;20427;-82
2021/01/03 01:42:47;;;;;;;10.33;8.63;;;1.00;99.90;;;;;;5114606;28;20672;-82
2021/01/03 01:45:15;;;;;;;11.20;8.30;;;1.30;99.90;;;;;;5114825;28;20752;-82
2021/01/03 01:47:44;;;;;;;9.73;8.10;;;1.20;99.90;;;;;;5114954;28;20498;-83
2021/01/03 01:50:20;;;;;;;10.77;8.40;;;0.80;99.90;;;;;;5117200;27;20416;-82
2021/01/03 01:52:52;;;;;;;10.13;8.80;;;1.40;99.90;;;;;;5115607;28;20427;-82
2021/01/03 01:55:23;;;;;;;10.03;7.97;;;1.30;99.90;;;;;;5115466;28;20430;-84
2021/01/03 01:58:05;;;;;;;12.37;8.60;;;1.30;99.90;;;;;;5115604;28;20432;-84
2021/01/03 02:00:35;;;;;;;12.50;9.73;;;1.30;99.90;;;;;;5114751;28;20423;-82
2021/01/03 02:03:19;;;;;;;9.13;7.20;;;0.90;99.90;;;;;;5114491;28;20787;-83
2021/01/03 02:06:14;;;;;;;8.53;7.73;;;1.40;99.90;;;;;;5113993;28;20423;-82
2021/01/03 02:09:04;;;;;;;9.47;7.93;;;0.80;99.90;;;;;;5135253;27;20431;-82
2021/01/03 02:11:30;;;;;;;10.37;8.40;;;0.90;99.90;;;;;;5112963;28;20420;-82
2021/01/03 02:14:02;;;;;;;9.83;7.83;;;1.00;99.90;;;;;;5114041;28;20434;-82
2021/01/03 02:16:34;;;;;;;9.57;8.57;;;1.20;99.90;;;;;;5113740;28;20427;-82
2021/01/03 02:19:00;;;;;;;8.93;8.00;;;1.20;99.90;;;;;;5113681;28;20434;-83
2021/01/03 02:21:49;;;;;;;9.30;8.13;;;0.80;99.90;;;;;;5113767;28;20423;-82
2021/01/03 02:24:25;;;;;;;10.03;8.43;;;0.80;99.90;;;;;;5113967;27;20953;-82
2021/01/03 02:27:02;;;;;;;9.27;8.33;;;1.40;99.90;;;;;;5113194;28;20494;-83
2021/01/03 02:29:29;;;;;;;8.13;7.20;;;1.20;99.90;;;;;;5113592;28;20416;-82
2021/01/03 02:31:58;;;;;;;11.37;9.30;;;0.80;99.90;;;;;;5113461;28;20477;-82
2021/01/03 02:34:43;;;;;;;10.10;9.07;;;1.00;99.90;;;;;;5114659;28;20416;-82
2021/01/03 02:37:16;;;;;;;10.57;8.30;;;1.40;99.90;;;;;;5113575;28;20438;-82
2021/01/03 02:39:51;;;;;;;9.33;7.97;;;1.30;99.90;;;;;;5113307;28;20512;-83
2021/01/03 02:42:30;;;;;;;11.57;10.03;;;1.40;99.90;;;;;;5113393;28;20455;-82
2021/01/03 02:44:56;;;;;;;11.50;9.30;;;1.10;99.90;;;;;;5114823;28;20511;-82
2021/01/03 02:47:25;;;;;;;9.80;8.80;;;0.80;99.90;;;;;;5113096;28;20479;-82
2021/01/03 02:49:51;;;;;;;8.70;7.90;;;0.90;99.90;;;;;;5114509;28;20940;-82
2021/01/03 02:52:23;;;;;;;12.60;9.40;;;0.80;99.90;;;;;;5113372;28;20416;-82
2021/01/03 02:54:50;;;;;;;12.90;10.60;;;1.20;99.90;;;;;;5113139;28;20907;-81
2021/01/03 02:57:16;;;;;;;10.17;9.20;;;0.70;99.90;;;;;;5113146;28;20416;-82
2021/01/03 02:59:42;;;;;;;11.93;9.50;;;1.20;99.90;;;;;;5113084;28;20515;-82
2021/01/03 03:02:07;;;;;;;12.97;9.83;;;1.20;99.90;;;;;;5113249;28;20186;-83
2021/01/03 03:04:33;;;;;;;13.00;11.30;;;0.70;99.90;;;;;;5113099;28;20201;-83
2021/01/03 03:06:59;;;;;;;11.77;9.63;;;1.20;99.90;;;;;;5112745;28;20525;-83
2021/01/03 03:09:24;;;;;;;12.57;10.20;;;0.70;99.90;;;;;;5112999;28;20166;-83
2021/01/03 03:11:50;;;;;;;11.20;9.00;;;0.90;99.90;;;;;;5112801;28;20585;-83
2021/01/03 03:14:18;;;;;;;15.63;11.10;;;1.10;99.90;;;;;;5112902;28;20734;-82
2021/01/03 03:16:53;;;;;;;15.20;11.70;;;0.60;99.90;;;;;;5112872;28;20625;-83
2021/01/03 03:19:19;;;;;;;8.87;7.60;;;1.00;99.90;;;;;;5113044;28;20407;-83
2021/01/03 03:21:50;;;;;;;15.30;11.30;;;1.10;99.90;;;;;;5112462;28;20773;-83
2021/01/03 03:24:16;;;;;;;15.47;11.77;;;0.90;99.90;;;;;;5113937;28;20177;-82
2021/01/03 03:26:41;;;;;;;14.90;12.57;;;0.60;99.90;;;;;;5112720;28;20982;-82
2021/01/03 03:29:09;;;;;;;12.20;7.90;;;0.60;99.90;;;;;;5112568;28;20556;-82
2021/01/03 03:31:35;;;;;;;18.90;12.00;;;0.30;99.90;;;;;;5112552;28;20177;-82
2021/01/03 03:34:01;;;;;;;15.40;11.90;;;0.40;99.90;;;;;;5112860;28;20400;-82
2021/01/03 03:36:26;;;;;;;16.00;12.73;;;0.30;99.90;;;;;;5112659;28;20268;-83
2021/01/03 03:38:52;;;;;;;16.57;12.40;;;0.40;99.90;;;;;;5112897;28;20181;-83
2021/01/03 03:41:24;;;;;;;14.97;12.90;;;0.60;99.90;;;;;;5112738;28;20743;-83
2021/01/03 03:43:51;;;;;;;15.23;12.03;;;0.60;99.90;;;;;;5113004;28;20173;-83
2021/01/03 03:46:16;;;;;;;19.43;12.90;;;0.20;99.90;;;;;;5113330;28;20452;-83
2021/01/03 03:48:42;;;;;;;19.60;12.73;;;0.80;99.90;;;;;;5112832;28;20965;-82
2021/01/03 03:51:08;;;;;;;21.17;14.80;;;0.20;99.90;;;;;;5112882;28;20661;-82
2021/01/03 03:53:33;;;;;;;16.17;11.70;;;0.60;99.90;;;;;;5112814;28;20178;-82
2021/01/03 03:55:59;;;;;;;16.53;12.73;;;0.60;99.90;;;;;;5112869;28;20627;-82
2021/01/03 03:58:25;;;;;;;18.90;13.50;;;0.80;99.90;;;;;;5112898;28;20184;-82
2021/01/03 04:00:52;;;;;;;19.03;13.53;;;0.30;99.90;;;;;;5112572;28;20441;-82
2021/01/03 04:03:21;;;;;;;20.20;13.27;;;0.60;99.90;;;;;;5112618;28;20519;-82
2021/01/03 04:05:47;;;;;;;21.40;13.97;;;0.20;99.90;;;;;;5112686;28;20415;-83
2021/01/03 04:08:17;;;;;;;19.50;13.50;;;0.30;99.90;;;;;;5113945;28;20822;-82
2021/01/03 04:10:43;;;;;;;17.70;12.43;;;0.10;99.90;;;;;;5112633;28;20461;-83
2021/01/03 04:13:12;;;;;;;18.00;12.87;;;0.60;99.90;;;;;;5112600;28;20423;-83
2021/01/03 04:15:40;;;;;;;17.80;14.50;;;0.60;99.90;;;;;;5112822;28;20705;-83
2021/01/03 04:18:05;;;;;;;15.03;13.07;;;0.70;99.90;;;;;;5113099;28;20451;-83
2021/01/03 04:20:34;;;;;;;21.13;14.30;;;0.20;99.90;;;;;;5115940;28;20942;-82
2021/01/03 04:23:11;;;;;;;22.33;13.50;;;0.40;99.90;;;;;;5114214;28;20188;-83
2021/01/03 04:25:38;;;;;;;21.03;14.77;;;0.20;99.90;;;;;;5112455;28;20411;-83
2021/01/03 04:28:04;;;;;;;19.10;13.90;;;0.50;99.90;;;;;;5112358;28;20513;-83
2021/01/03 04:30:30;;;;;;;21.07;13.97;;;0.60;99.90;;;;;;5112474;28;20419;-83
2021/01/03 04:32:55;;;;;;;15.37;11.53;;;0.20;99.90;;;;;;5112799;28;20432;-83
2021/01/03 04:35:23;;;;;;;24.20;16.07;;;0.30;99.90;;;;;;5115675;28;20205;-83
2021/01/03 04:37:54;;;;;;;22.47;14.47;;;0.50;99.90;;;;;;5117339;28;20174;-84
2021/01/03 04:40:26;;;;;;;21.93;15.60;;;0.20;99.90;;;;;;5116208;28;20416;-83
2021/01/03 04:42:54;;;;;;;22.53;16.07;;;0.60;99.90;;;;;;5116360;28;20415;-84
2021/01/03 04:45:32;;;;;;;23.00;16.53;;;0.50;99.90;;;;;;5116162;28;20424;-82
2021/01/03 04:48:07;;;;;;;22.80;17.87;;;0.40;99.90;;;;;;5116107;28;20471;-83
2021/01/03 04:50:57;;;;;;;20.67;15.13;;;0.40;99.90;;;;;;5115873;28;20407;-83
2021/01/03 04:53:34;;;;;;;19.50;15.07;;;-0.10;99.90;;;;;;5116015;28;20470;-82
2021/01/03 04:56:03;;;;;;;23.33;15.83;;;0.10;99.90;;;;;;5117087;27;20404;-82
2021/01/03 04:58:42;;;;;;;19.50;13.77;;;0.30;99.90;;;;;;5115772;28;20419;-82
2021/01/03 05:01:37;;;;;;;21.07;14.73;;;0.00;99.90;;;;;;5115614;28;20979;-82
2021/01/03 05:04:05;;;;;;;23.87;16.20;;;0.50;99.90;;;;;;5115395;27;20485;-82
2021/01/03 05:06:31;;;;;;;23.93;13.80;;;0.40;99.90;;;;;;5115466;28;20477;-82
2021/01/03 05:09:04;;;;;;;21.90;16.30;;;0.00;99.90;;;;;;5115485;28;20419;-82
2021/01/03 05:12:02;;;;;;;23.27;15.37;;;0.30;99.90;;;;;;5116383;28;20208;-82
2021/01/03 05:14:46;;;;;;;27.93;16.33;;;0.50;99.90;;;;;;5115454;28;20507;-83
2021/01/03 05:17:12;;;;;;;23.80;16.77;;;-0.10;99.90;;;;;;5115194;28;20415;-83
2021/01/03 05:19:37;;;;;;;25.90;17.60;;;0.30;99.90;;;;;;5115126;28;20418;-83
2021/01/03 05:22:04;;;;;;;24.13;17.70;;;0.10;99.90;;;;;;5115141;28;20173;-83
2021/01/03 05:24:40;;;;;;;21.73;15.70;;;0.00;99.90;;;;;;5115206;28;20230;-83
2021/01/03 05:27:19;;;;;;;21.67;14.80;;;0.10;99.90;;;;;;5115987;28;21016;-83
2021/01/03 05:29:44;;;;;;;23.67;16.10;;;0.30;99.90;;;;;;5114961;28;20480;-83
2021/01/03 05:32:11;;;;;;;23.73;16.83;;;0.30;99.90;;;;;;5116257;28;20407;-83
2021/01/03 05:34:40;;;;;;;23.77;16.70;;;0.30;99.90;;;;;;5114272;28;20177;-83
2021/01/03 05:37:13;;;;;;;21.97;15.77;;;0.40;99.90;;;;;;5114971;28;20411;-83
2021/01/03 05:39:40;;;;;;;21.53;14.83;;;0.20;99.90;;;;;;5116067;28;20415;-83
2021/01/03 05:42:42;;;;;;;22.67;15.90;;;0.00;99.90;;;;;;5114895;28;20437;-83
2021/01/03 05:45:27;;;;;;;25.40;17.37;;;0.50;99.90;;;;;;5135613;27;20496;-83
2021/01/03 05:47:59;;;;;;;20.73;15.67;;;0.50;99.90;;;;;;5114375;28;20503;-83
2021/01/03 05:50:25;;;;;;;21.17;15.83;;;0.30;99.90;;;;;;5115771;28;20408;-84
2021/01/03 05:53:16;;;;;;;24.93;16.50;;;0.00;99.90;;;;;;5114239;28;20896;-83
2021/01/03 05:55:52;;;;;;;24.70;17.10;;;0.40;99.90;;;;;;5114445;28;20441;-83
2021/01/03 05:58:41;;;;;;;23.20;15.67;;;0.30;99.90;;;;;;5114368;28;20438;-83
2021/01/03 06:01:18;;;;;;;24.70;15.10;;;0.60;99.90;;;;;;5114578;28;20411;-83
2021/01/03 06:03:57;;;;;;;20.80;13.77;;;0.10;99.90;;;;;;5114162;28;20960;-83
2021/01/03 06:06:47;;;;;;;26.13;17.30;;;0.00;99.90;;;;;;5114280;28;20483;-84
2021/01/03 06:09:15;;;;;;;21.23;15.50;;;0.50;99.90;;;;;;5107794;28;20435;-84
2021/01/03 06:11:55;;;;;;;23.57;17.23;;;0.50;99.90;;;;;;5113923;28;20476;-84
2021/01/03 06:14:23;;;;;;;23.87;16.93;;;0.40;99.90;;;;;;5114046;28;20582;-84
2021/01/03 06:16:49;;;;;;;22.80;16.30;;;0.50;99.90;;;;;;5114361;28;20420;-84
2021/01/03 06:19:36;;;;;;;23.17;16.17;;;0.10;99.90;;;;;;5114170;28;20799;-84
2021/01/03 06:22:12;;;;;;;24.10;16.90;;;0.40;99.90;;;;;;5113891;28;20262;-81
2021/01/03 06:24:41;;;;;;;22.00;14.90;;;0.30;99.90;;;;;;5113857;28;20423;-83
2021/01/03 06:27:18;;;;;;;24.20;16.30;;;0.10;99.90;;;;;;5114790;28;20482;-84
2021/01/03 06:29:57;;;;;;;24.33;15.90;;;0.10;99.90;;;;;;5113824;28;20767;-84
2021/01/03 06:32:36;;;;;;;18.70;12.83;;;-0.10;99.90;;;;;;5113777;28;20427;-84
2021/01/03 06:35:28;;;;;;;23.00;15.50;;;0.10;99.90;;;;;;5113784;28;20436;-84
2021/01/03 06:38:15;;;;;;;23.10;15.60;;;0.50;99.90;;;;;;5139716;27;20652;-83
2021/01/03 06:40:57;;;;;;;23.73;16.50;;;0.40;99.90;;;;;;5114876;28;20907;-84
2021/01/03 06:43:44;;;;;;;26.50;17.73;;;0.20;99.90;;;;;;5113567;28;20416;-83
2021/01/03 06:46:42;;;;;;;21.20;14.10;;;0.50;99.90;;;;;;5113590;28;20411;-83
2021/01/03 06:49:21;;;;;;;18.03;14.77;;;0.60;99.90;;;;;;5117923;28;20981;-84
2021/01/03 06:52:21;;;;;;;20.33;14.40;;;0.60;99.90;;;;;;5113734;28;20813;-83
2021/01/03 06:55:05;;;;;;;18.77;14.20;;;0.40;99.90;;;;;;5113521;28;20427;-83
2021/01/03 06:57:56;;;;;;;19.70;13.53;;;0.10;99.90;;;;;;5112997;28;20420;-84
2021/01/03 07:00:24;;;;;;;21.63;14.20;;;0.60;99.90;;;;;;5113275;28;20435;-83
2021/01/03 07:02:55;;;;;;;20.80;15.50;;;0.00;99.90;;;;;;5113154;28;20906;-84
2021/01/03 07:05:21;;;;;;;18.97;14.93;;;0.40;99.90;;;;;;5113112;28;20431;-83
2021/01/03 07:07:59;;;;;;;19.13;15.23;;;0.30;99.90;;;;;;5113118;28;20468;-84
2021/01/03 07:10:40;;;;;;;19.07;13.40;;;0.30;99.90;;;;;;5113301;28;20419;-83
2021/01/03 07:13:25;;;;;;;22.40;15.93;;;0.50;99.90;;;;;;5113271;28;20502;-83
2021/01/03 07:15:51;;;;;;;20.57;13.73;;;0.50;99.90;;;;;;5113218;28;20424;-83
2021/01/03 07:18:26;;;;;;;23.90;16.20;;;0.30;99.90;;;;;;5112963;28;20404;-84
2021/01/03 07:21:20;;;;;;;18.07;13.80;;;0.30;99.90;;;;;;5112850;28;20431;-83
2021/01/03 07:23:49;;;;;;;20.97;14.17;;;0.30;99.90;;;;;;5097115;28;20413;-83
2021/01/03 07:26:28;;;;;;;18.73;14.17;;;0.40;99.90;;;;;;5113032;28;20974;-83
2021/01/03 07:29:16;;;;;;;16.63;13.87;;;0.40;99.90;;;;;;5101095;28;20481;-83
2021/01/03 07:31:42;;;;;;;20.10;14.60;;;0.40;99.90;;;;;;5110832;28;20419;-84
2021/01/03 07:34:23;;;;;;;19.20;14.23;;;0.10;99.90;;;;;;5110775;28;20446;-84
2021/01/03 07:37:11;;;;;;;22.20;14.13;;;0.10;99.90;;;;;;5112407;28;20560;-84
2021/01/03 07:40:00;;;;;;;20.97;15.53;;;-0.10;99.90;;;;;;5110110;28;20856;-83
2021/01/03 07:42:25;;;;;;;21.47;15.50;;;0.20;99.90;;;;;;5110501;28;20510;-84
2021/01/03 07:44:52;;;;;;;17.47;13.53;;;0.10;99.90;;;;;;5125184;28;20560;-83
2021/01/03 07:47:33;;;;;;;22.33;15.00;;;0.30;99.90;;;;;;5121860;27;20210;-84
2021/01/03 07:50:17;;;;;;;18.57;14.17;;;-0.10;99.90;;;;;;5111409;28;20430;-84
2021/01/03 07:52:59;;;;;;;15.37;9.33;;;0.50;99.90;;;;;;5109850;28;20426;-83
2021/01/03 07:55:34;;;;;;;24.27;16.03;;;0.40;99.90;;;;;;5110040;28;20419;-85
2021/01/03 07:58:04;;;;;;;23.37;15.57;;;0.30;99.90;;;;;;5110021;28;20419;-83
2021/01/03 08:00:36;;;;;;;29.33;16.10;;;0.60;99.90;;;;;;5109930;28;20910;-83
2021/01/03 08:03:05;;;;;;;24.50;15.73;;;0.00;99.90;;;;;;5110239;28;20430;-83
2021/01/03 08:05:32;;;;;;;18.53;14.33;;;0.60;99.90;;;;;;5110186;28;20937;-84
2021/01/03 08:08:12;;;;;;;20.23;14.30;;;0.70;99.90;;;;;;5110954;28;20474;-84
2021/01/03 08:10:37;;;;;;;18.90;14.10;;;0.60;99.90;;;;;;5115535;28;20450;-83
2021/01/03 08:13:12;;;;;;;46.57;14.50;;;0.50;99.90;;;;;;5115425;28;20465;-84
2021/01/03 08:15:38;;;;;;;20.40;15.10;;;0.50;99.90;;;;;;5116131;28;20170;-84
2021/01/03 08:18:14;;;;;;;19.23;13.97;;;0.20;99.90;;;;;;5116437;28;20415;-83
2021/01/03 08:20:40;;;;;;;20.33;14.40;;;0.50;99.90;;;;;;5115976;28;20478;-83
2021/01/03 08:23:28;;;;;;;22.47;15.77;;;0.50;99.90;;;;;;5115534;28;20418;-83
2021/01/03 08:26:11;;;;;;;17.57;13.50;;;0.60;99.90;;;;;;5115194;28;20217;-84
2021/01/03 08:28:49;;;;;;;24.43;15.70;;;0.60;99.90;;;;;;5115235;28;20514;-83
2021/01/03 08:31:15;;;;;;;19.00;14.20;;;0.80;99.90;;;;;;5115291;28;20411;-83
2021/01/03 08:33:42;;;;;;;18.27;15.10;;;0.90;99.90;;;;;;5115776;28;20930;-83
2021/01/03 08:36:15;;;;;;;20.13;15.90;;;0.30;99.90;;;;;;5115089;28;20174;-84
2021/01/03 08:38:40;;;;;;;26.03;17.33;;;0.20;99.90;;;;;;5115108;28;20416;-83
2021/01/03 08:41:11;;;;;;;25.27;14.33;;;0.40;99.90;;;;;;5115049;28;20748;-84
2021/01/03 08:43:37;;;;;;;19.30;15.53;;;0.40;99.90;;;;;;5114975;28;20174;-84
2021/01/03 08:46:05;;;;;;;22.37;16.30;;;0.30;99.90;;;;;;5114666;28;20507;-84
2021/01/03 08:48:31;;;;;;;22.13;16.33;;;0.20;99.90;;;;;;5114788;28;20178;-84
2021/01/03 08:51:11;;;;;;;23.50;16.60;;;0.40;99.90;;;;;;5114866;28;20420;-83
2021/01/03 08:53:38;;;;;;;19.87;15.87;;;0.60;99.90;;;;;;5115980;28;20408;-84
2021/01/03 08:56:18;;;;;;;22.77;18.33;;;0.80;99.90;;;;;;5114333;28;20456;-84
2021/01/03 08:58:44;;;;;;;18.43;14.33;;;0.90;99.90;;;;;;5115859;28;20416;-84
2021/01/03 09:01:19;;;;;;;19.80;15.00;;;0.50;99.90;;;;;;5114411;28;20503;-83
2021/01/03 09:03:45;;;;;;;22.13;15.73;;;0.40;99.90;;;;;;5115558;28;21016;-84
2021/01/03 09:06:13;;;;;;;21.67;15.70;;;0.60;99.90;;;;;;5114169;28;20412;-83
2021/01/03 09:08:41;;;;;;;19.73;14.70;;;0.40;99.90;;;;;;5114490;28;20522;-83
2021/01/03 09:11:31;;;;;;;19.60;16.50;;;1.00;99.90;;;;;;5115576;28;20415;-84
2021/01/03 09:14:13;;;;;;;22.10;14.67;;;0.90;99.90;;;;;;5114106;28;20768;-84
2021/01/03 09:16:47;;;;;;;17.00;14.33;;;0.60;99.90;;;;;;5114343;28;20969;-84
2021/01/03 09:19:22;;;;;;;19.73;15.30;;;0.90;99.90;;;;;;5114392;28;20461;-84
2021/01/03 09:21:59;;;;;;;22.70;15.73;;;0.90;99.90;;;;;;5114301;28;20415;-83
2021/01/03 09:24:34;;;;;;;20.70;15.43;;;0.60;99.90;;;;;;5115098;28;20744;-83
2021/01/03 09:27:03;;;;;;;20.17;15.33;;;0.90;99.90;;;;;;5113812;28;20486;-83
2021/01/03 09:29:34;;;;;;;23.80;16.80;;;1.00;99.90;;;;;;5113922;28;20490;-83
2021/01/03 09:32:10;;;;;;;19.53;15.47;;;1.30;99.90;;;;;;5113556;28;20428;-84
2021/01/03 09:35:02;;;;;;;25.00;19.03;;;1.10;99.90;;;;;;5113980;28;20415;-84
2021/01/03 09:37:32;;;;;;;22.47;17.00;;;1.30;99.90;;;;;;5114122;28;20791;-84
2021/01/03 09:40:26;;;;;;;24.33;15.90;;;1.20;99.90;;;;;;5113500;28;20429;-84
2021/01/03 09:43:25;;;;;;;19.13;15.47;;;1.30;99.90;;;;;;5114856;28;20416;-84
2021/01/03 09:46:04;;;;;;;23.10;17.43;;;1.30;99.90;;;;;;5114950;28;20412;-83
2021/01/03 09:48:37;;;;;;;19.33;14.73;;;1.00;99.90;;;;;;5113468;28;20768;-84
2021/01/03 09:51:12;;;;;;;21.37;17.93;;;1.40;99.90;;;;;;5113331;28;20416;-84
2021/01/03 09:53:40;;;;;;;20.03;15.93;;;1.40;99.90;;;;;;5113369;28;20415;-82
2021/01/03 09:56:17;;;;;;;19.80;15.53;;;1.60;99.90;;;;;;5114463;28;20460;-83
2021/01/03 09:58:49;;;;;;;21.87;14.90;;;1.70;99.90;;;;;;5113280;28;20435;-84
2021/01/03 10:01:31;;;;;;;19.90;14.40;;;1.00;99.90;;;;;;5113405;28;20980;-83
2021/01/03 10:04:11;;;;;;;18.60;14.97;;;1.00;99.90;;;;;;5113288;28;20423;-83
2021/01/03 10:06:39;;;;;;;18.87;13.73;;;0.90;99.90;;;;;;5116088;28;20575;-84
2021/01/03 10:09:17;;;;;;;19.27;13.53;;;1.40;99.90;;;;;;5113241;28;20988;-84
2021/01/03 10:11:45;;;;;;;18.47;13.77;;;1.50;99.90;;;;;;5114587;28;20732;-84
2021/01/03 10:14:33;;;;;;;18.77;14.93;;;1.70;99.90;;;;;;5116331;28;20428;-83
2021/01/03 10:17:19;;;;;;;18.27;14.03;;;1.60;99.90;;;;;;5114487;28;20805;-83
2021/01/03 10:19:45;;;;;;;18.00;13.60;;;1.70;99.90;;;;;;5112793;28;20420;-83
2021/01/03 10:22:29;;;;;;;17.23;13.97;;;1.40;99.90;;;;;;5114017;28;20403;-84
2021/01/03 10:24:57;;;;;;;16.80;12.70;;;1.10;99.90;;;;;;5112842;28;20412;-83
2021/01/03 10:27:22;;;;;;;18.43;13.50;;;1.50;99.90;;;;;;5112301;28;20475;-83
2021/01/03 10:29:48;;;;;;;19.87;13.57;;;1.40;99.90;;;;;;5113671;28;20414;-83
2021/01/03 10:32:13;;;;;;;17.73;13.97;;;1.30;99.90;;;;;;5111900;28;20274;-85
2021/01/03 10:34:39;;;;;;;20.90;14.77;;;1.30;99.90;;;;;;5112673;28;20177;-83
2021/01/03 10:37:05;;;;;;;19.53;14.53;;;1.60;99.90;;;;;;5113013;28;20185;-83
2021/01/03 10:39:31;;;;;;;15.20;12.80;;;1.40;99.90;;;;;;5112654;28;20253;-83
2021/01/03 10:41:58;;;;;;;17.90;13.20;;;1.40;99.90;;;;;;5112723;28;20543;-82
2021/01/03 10:44:24;;;;;;;20.43;14.20;;;1.40;99.90;;;;;;5112530;28;20178;-83
2021/01/03 10:46:51;;;;;;;19.60;14.53;;;1.60;99.90;;;;;;5112455;28;21016;-83
2021/01/03 10:49:17;;;;;;;18.10;13.90;;;1.50;99.90;;;;;;5112766;28;20411;-83
2021/01/03 10:51:46;;;;;;;14.97;12.80;;;1.50;99.90;;;;;;5114612;28;20447;-83
2021/01/03 10:54:15;;;;;;;21.17;13.73;;;2.10;99.90;;;;;;5112217;28;20927;-84
2021/01/03 10:56:49;;;;;;;17.67;14.17;;;2.20;99.90;;;;;;5112058;28;20922;-82
2021/01/03 10:59:16;;;;;;;18.60;15.23;;;2.00;99.90;;;;;;5123133;27;20463;-83
2021/01/03 11:01:42;;;;;;;18.23;15.53;;;1.80;99.90;;;;;;5132707;27;21017;-83
2021/01/03 11:04:08;;;;;;;17.80;13.87;;;1.90;99.90;;;;;;5132724;27;20567;-83
2021/01/03 11:06:39;;;;;;;17.77;14.27;;;1.60;99.90;;;;;;5132560;27;20461;-82
2021/01/03 11:09:07;;;;;;;24.20;16.30;;;2.00;99.90;;;;;;5132736;27;20426;-83
2021/01/03 11:11:33;;;;;;;19.90;15.13;;;2.10;99.90;;;;;;5132560;27;20918;-82
2021/01/03 11:13:58;;;;;;;17.73;13.47;;;1.70;99.90;;;;;;5132385;27;20513;-83
2021/01/03 11:16:35;;;;;;;21.17;15.43;;;1.60;99.90;;;;;;5132501;27;20173;-85
2021/01/03 11:19:01;;;;;;;19.93;14.70;;;2.00;99.90;;;;;;5132442;27;20190;-83
2021/01/03 11:21:27;;;;;;;25.23;17.37;;;2.30;99.90;;;;;;5132556;27;20786;-83
2021/01/03 11:23:52;;;;;;;19.20;16.77;;;1.90;99.90;;;;;;5121588;27;20626;-83
2021/01/03 11:26:44;;;;;;;20.30;16.53;;;2.10;99.90;;;;;;5112797;28;20586;-83
2021/01/03 11:29:14;;;;;;;20.53;15.57;;;1.30;99.90;;;;;;5112422;28;20197;-83
2021/01/03 11:31:46;;;;;;;22.73;18.83;;;2.00;99.90;;;;;;5111842;28;20502;-82
2021/01/03 11:34:14;;;;;;;19.97;16.67;;;1.70;99.90;;;;;;5113451;28;20431;-83
2021/01/03 11:36:46;;;;;;;20.97;18.10;;;2.20;99.90;;;;;;5112127;28;20425;-83
2021/01/03 11:39:12;;;;;;;19.00;15.83;;;1.90;99.90;;;;;;5112600;28;20466;-83
2021/01/03 11:41:37;;;;;;;18.87;15.70;;;1.60;99.90;;;;;;5118438;28;20423;-85
2021/01/03 11:44:03;;;;;;;22.30;18.17;;;1.40;99.90;;;;;;5136768;27;20509;-84
2021/01/03 11:46:29;;;;;;;22.80;16.90;;;2.10;99.90;;;;;;5139392;27;20193;-83
2021/01/03 11:48:55;;;;;;;24.60;17.97;;;2.20;99.90;;;;;;5129490;27;20426;-84
2021/01/03 11:51:21;;;;;;;23.13;17.27;;;2.20;99.90;;;;;;5116886;28;20168;-83
2021/01/03 11:53:47;;;;;;;23.80;17.17;;;2.10;99.90;;;;;;5132113;27;20917;-84
2021/01/03 11:56:21;;;;;;;23.37;16.57;;;1.50;99.90;;;;;;5136267;27;20447;-84
2021/01/03 11:58:47;;;;;;;22.00;16.33;;;1.80;99.90;;;;;;5136515;27;20593;-84
2021/01/03 12:01:20;;;;;;;22.10;15.83;;;1.40;99.90;;;;;;5136428;27;20526;-83
2021/01/03 12:03:47;;;;;;;20.33;16.50;;;1.80;99.90;;;;;;5136239;27;20479;-82
2021/01/03 12:06:18;;;;;;;23.20;16.70;;;1.40;99.90;;;;;;5137270;27;20407;-83
2021/01/03 12:08:44;;;;;;;20.13;15.70;;;1.60;99.90;;;;;;5128870;27;20525;-82
2021/01/03 12:11:15;;;;;;;22.40;15.80;;;1.40;99.90;;;;;;5116726;28;20423;-83
2021/01/03 12:13:40;;;;;;;23.20;16.80;;;1.90;99.90;;;;;;5115619;28;20480;-83
2021/01/03 12:16:06;;;;;;;22.07;17.07;;;1.50;99.90;;;;;;5115265;28;20922;-82
2021/01/03 12:18:31;;;;;;;22.70;17.43;;;1.60;99.90;;;;;;5116105;28;20185;-84
2021/01/03 12:20:57;;;;;;;20.70;16.70;;;1.80;99.90;;;;;;5116342;28;20178;-81
2021/01/03 12:23:22;;;;;;;20.83;15.80;;;1.40;99.90;;;;;;5116555;28;20184;-81
2021/01/03 12:25:48;;;;;;;25.57;18.37;;;1.40;99.90;;;;;;5116055;28;20229;-85
2021/01/03 12:28:13;;;;;;;24.57;16.80;;;1.50;99.90;;;;;;5116181;28;20218;-82
2021/01/03 12:30:39;;;;;;;21.60;14.57;;;1.80;99.90;;;;;;5116251;28;20178;-81
2021/01/03 12:33:05;;;;;;;22.30;17.30;;;1.50;99.90;;;;;;5116289;28;20174;-82
2021/01/03 12:35:30;;;;;;;22.87;18.03;;;1.90;99.90;;;;;;5116888;28;20174;-82
2021/01/03 12:37:56;;;;;;;25.03;18.03;;;1.70;99.90;;;;;;5116100;28;20166;-82
2021/01/03 12:40:22;;;;;;;19.97;14.60;;;2.10;99.90;;;;;;5115995;28;20177;-83
2021/01/03 12:42:47;;;;;;;25.70;17.90;;;2.20;99.90;;;;;;5116141;28;20178;-82
2021/01/03 12:45:14;;;;;;;22.83;17.07;;;2.10;99.90;;;;;;5117496;28;20210;-83
2021/01/03 12:47:40;;;;;;;24.43;18.27;;;2.20;99.90;;;;;;5115779;28;20209;-82
2021/01/03 12:50:07;;;;;;;20.33;16.10;;;1.70;99.90;;;;;;5117089;28;20414;-82
2021/01/03 12:52:32;;;;;;;18.67;16.47;;;2.10;99.90;;;;;;5115487;28;20428;-83
2021/01/03 12:54:58;;;;;;;21.87;16.23;;;2.00;99.90;;;;;;5115301;28;20416;-83
2021/01/03 12:57:26;;;;;;;21.83;17.17;;;1.80;99.90;;;;;;5115861;28;20246;-81
2021/01/03 12:59:51;;;;;;;23.10;16.37;;;1.80;99.90;;;;;;5118237;28;20705;-83
2021/01/03 13:02:17;;;;;;;22.40;19.27;;;2.00;99.90;;;;;;5116184;28;20573;-82
2021/01/03 13:04:48;;;;;;;22.23;16.83;;;1.70;99.90;;;;;;5116817;28;20518;-82